Time;durP1;ratioP1;P1;durP2;ratioP2;P2;SDS_P1;SDS_P2;PMS_P1;PMS_P2;Temp;Humidity;BMP_temperature;BMP_pressure;BME280_temperature;BME280_humidity;BME280_pressure;Samples;Min_cycle;Max_cycle;Signal;HPM_P1;HPM_P2
2022/02/18 00:00:09;;;;;;;4.60;1.60;;;;;;;;;;5067111;28;24566;-57
2022/02/18 00:02:35;;;;;;;4.00;1.80;;;;;;;;;;5067802;28;24706;-57
2022/02/18 00:05:00;;;;;;;3.40;1.60;;;;;;;;;;5068272;28;24500;-57
2022/02/18 00:07:25;;;;;;;2.03;1.30;;;;;;;;;;5067575;28;24437;-57
2022/02/18 00:09:50;;;;;;;3.58;1.70;;;;;;;;;;5067730;28;24506;-57
2022/02/18 00:12:15;;;;;;;2.70;1.40;;;;;;;;;;5067994;28;24480;-57
2022/02/18 00:14:40;;;;;;;4.40;1.67;;;;;;;;;;5068687;28;24947;-57
2022/02/18 00:17:06;;;;;;;3.13;1.50;;;;;;;;;;5068087;28;24431;-57
2022/02/18 00:19:31;;;;;;;4.10;2.00;;;;;;;;;;5066838;28;24834;-56
2022/02/18 00:21:56;;;;;;;1.70;1.20;;;;;;;;;;5066652;28;24422;-57
2022/02/18 00:24:21;;;;;;;2.50;1.55;;;;;;;;;;5067971;28;25269;-57
2022/02/18 00:26:46;;;;;;;2.40;1.50;;;;;;;;;;5068051;28;24503;-58
2022/02/18 00:29:12;;;;;;;3.00;1.60;;;;;;;;;;5061435;28;24502;-57
2022/02/18 00:31:37;;;;;;;4.17;1.60;;;;;;;;;;5067202;28;24751;-57
2022/02/18 00:34:02;;;;;;;2.97;1.50;;;;;;;;;;5067502;28;24490;-57
2022/02/18 00:36:27;;;;;;;2.88;1.73;;;;;;;;;;5067757;28;24430;-56
2022/02/18 00:38:52;;;;;;;2.88;1.40;;;;;;;;;;5066861;28;24476;-55
2022/02/18 00:41:17;;;;;;;1.50;1.17;;;;;;;;;;5063537;28;24443;-55
2022/02/18 00:43:43;;;;;;;3.20;1.30;;;;;;;;;;5067683;28;24411;-55
2022/02/18 00:46:08;;;;;;;3.97;1.60;;;;;;;;;;5066753;28;24537;-55
2022/02/18 00:48:33;;;;;;;3.93;1.40;;;;;;;;;;5063170;28;24848;-56
2022/02/18 00:50:59;;;;;;;2.93;1.50;;;;;;;;;;5066623;28;24415;-55
2022/02/18 00:53:24;;;;;;;5.17;1.60;;;;;;;;;;5065677;28;24850;-56
2022/02/18 00:55:50;;;;;;;2.80;1.40;;;;;;;;;;5067493;28;24417;-56
2022/02/18 00:58:15;;;;;;;3.15;1.13;;;;;;;;;;5066889;28;24493;-55
2022/02/18 01:00:41;;;;;;;3.73;1.43;;;;;;;;;;5066670;28;24542;-56
2022/02/18 01:03:06;;;;;;;1.80;1.20;;;;;;;;;;5066292;28;24411;-56
2022/02/18 01:05:31;;;;;;;2.30;1.30;;;;;;;;;;5066988;28;25003;-56
2022/02/18 01:07:56;;;;;;;3.10;1.00;;;;;;;;;;5067582;28;24480;-56
2022/02/18 01:10:21;;;;;;;4.35;1.30;;;;;;;;;;5065508;28;24446;-56
2022/02/18 01:12:46;;;;;;;3.42;1.25;;;;;;;;;;5065746;28;24419;-56
2022/02/18 01:15:12;;;;;;;1.73;1.03;;;;;;;;;;5067054;28;24414;-57
2022/02/18 01:17:37;;;;;;;2.75;1.20;;;;;;;;;;5067258;28;24471;-56
2022/02/18 01:20:03;;;;;;;3.33;1.20;;;;;;;;;;5065686;28;24917;-57
2022/02/18 01:22:28;;;;;;;2.03;1.00;;;;;;;;;;5065812;28;25026;-57
2022/02/18 01:24:53;;;;;;;2.20;1.10;;;;;;;;;;5064548;28;24417;-56
2022/02/18 01:27:18;;;;;;;2.50;1.08;;;;;;;;;;5062974;28;25067;-56
2022/02/18 01:29:44;;;;;;;3.22;1.38;;;;;;;;;;5066906;28;24491;-56
2022/02/18 01:32:10;;;;;;;2.23;1.30;;;;;;;;;;5065506;28;24411;-56
2022/02/18 01:34:35;;;;;;;1.30;0.90;;;;;;;;;;5066239;28;24425;-56
2022/02/18 01:37:00;;;;;;;3.40;1.20;;;;;;;;;;5061648;28;24531;-56
2022/02/18 01:39:25;;;;;;;4.23;1.30;;;;;;;;;;5067202;28;24423;-56
2022/02/18 01:41:51;;;;;;;3.50;1.27;;;;;;;;;;5064808;28;24496;-56
2022/02/18 01:44:36;;;;;;;2.40;1.13;;;;;;;;;;5065635;28;24488;-56
2022/02/18 01:47:02;;;;;;;2.65;0.90;;;;;;;;;;5048676;28;24431;-56
2022/02/18 01:49:27;;;;;;;2.40;1.10;;;;;;;;;;5063546;28;24765;-55
2022/02/18 01:51:52;;;;;;;2.07;1.00;;;;;;;;;;5065513;28;24991;-55
2022/02/18 01:54:18;;;;;;;2.37;1.20;;;;;;;;;;5066258;28;24411;-56
2022/02/18 01:56:43;;;;;;;3.78;1.30;;;;;;;;;;5066224;28;24418;-54
2022/02/18 01:59:08;;;;;;;2.45;1.08;;;;;;;;;;5065473;28;24423;-55
2022/02/18 02:01:33;;;;;;;1.53;1.00;;;;;;;;;;5066437;28;24890;-55
2022/02/18 02:03:58;;;;;;;1.33;1.00;;;;;;;;;;5066397;28;24414;-55
2022/02/18 02:06:23;;;;;;;2.13;1.00;;;;;;;;;;5063943;28;24410;-56
2022/02/18 02:08:49;;;;;;;2.27;1.13;;;;;;;;;;5064975;28;25133;-56
2022/02/18 02:11:14;;;;;;;4.33;1.30;;;;;;;;;;5061965;28;24919;-56
2022/02/18 02:13:40;;;;;;;2.08;0.88;;;;;;;;;;5065627;28;25041;-56
2022/02/18 02:16:05;;;;;;;2.03;1.05;;;;;;;;;;5063918;28;24413;-56
2022/02/18 02:18:31;;;;;;;4.20;1.40;;;;;;;;;;5066229;28;24423;-56
2022/02/18 02:20:56;;;;;;;2.70;1.00;;;;;;;;;;5064492;28;24822;-56
2022/02/18 02:23:22;;;;;;;1.93;0.97;;;;;;;;;;5064390;28;24983;-56
2022/02/18 02:25:47;;;;;;;2.50;1.10;;;;;;;;;;5064842;28;24477;-56
2022/02/18 02:28:12;;;;;;;4.10;1.30;;;;;;;;;;5065712;28;25102;-56
2022/02/18 02:30:38;;;;;;;2.67;1.27;;;;;;;;;;5059205;28;24899;-56
2022/02/18 02:33:03;;;;;;;2.60;1.13;;;;;;;;;;5060032;28;24537;-56
2022/02/18 02:35:28;;;;;;;3.53;1.00;;;;;;;;;;5063536;28;25031;-56
2022/02/18 02:37:54;;;;;;;2.60;1.20;;;;;;;;;;5063845;28;24434;-56
2022/02/18 02:40:19;;;;;;;2.50;1.20;;;;;;;;;;5065560;28;25257;-56
2022/02/18 02:42:46;;;;;;;2.73;1.00;;;;;;;;;;5065140;28;24911;-56
2022/02/18 02:45:11;;;;;;;2.83;1.00;;;;;;;;;;5060487;28;25011;-56
2022/02/18 02:47:42;;;;;;;2.53;1.10;;;;;;;;;;5065807;28;24431;-55
2022/02/18 02:50:07;;;;;;;1.90;1.10;;;;;;;;;;5065709;28;24422;-55
2022/02/18 02:52:32;;;;;;;2.08;1.20;;;;;;;;;;5065638;28;24403;-55
2022/02/18 02:54:57;;;;;;;2.40;1.30;;;;;;;;;;5063472;28;25234;-56
2022/02/18 02:57:22;;;;;;;3.40;1.20;;;;;;;;;;5065998;28;24514;-56
2022/02/18 02:59:48;;;;;;;2.42;1.13;;;;;;;;;;5066309;28;24422;-60
2022/02/18 03:02:13;;;;;;;2.87;1.33;;;;;;;;;;5068405;28;24515;-57
2022/02/18 03:04:38;;;;;;;4.20;1.40;;;;;;;;;;5069011;28;24453;-56
2022/02/18 03:07:03;;;;;;;2.00;1.07;;;;;;;;;;5067915;28;24839;-56
2022/02/18 03:09:28;;;;;;;2.30;1.20;;;;;;;;;;5068628;28;24809;-56
2022/02/18 03:11:53;;;;;;;2.75;1.25;;;;;;;;;;5069410;28;24407;-55
2022/02/18 03:14:19;;;;;;;1.92;1.13;;;;;;;;;;5068552;28;24488;-56
2022/02/18 03:16:44;;;;;;;2.40;1.20;;;;;;;;;;5063208;28;24830;-56
2022/02/18 03:19:09;;;;;;;2.37;1.20;;;;;;;;;;5067561;28;25007;-56
2022/02/18 03:21:34;;;;;;;2.28;1.10;;;;;;;;;;5068776;28;24413;-56
2022/02/18 03:23:59;;;;;;;3.00;1.10;;;;;;;;;;5068417;28;24421;-57
2022/02/18 03:26:24;;;;;;;2.40;1.10;;;;;;;;;;5065092;28;24951;-56
2022/02/18 03:28:50;;;;;;;1.60;1.10;;;;;;;;;;5069193;28;24425;-56
2022/02/18 03:31:15;;;;;;;3.83;1.30;;;;;;;;;;5068541;28;24406;-56
2022/02/18 03:33:41;;;;;;;3.05;1.40;;;;;;;;;;5068474;28;25138;-56
2022/02/18 03:36:07;;;;;;;2.72;1.20;;;;;;;;;;5069006;28;24513;-57
2022/02/18 03:38:32;;;;;;;3.67;1.30;;;;;;;;;;5068493;28;25041;-56
2022/02/18 03:40:57;;;;;;;3.20;1.10;;;;;;;;;;5068017;28;24737;-57
2022/02/18 03:43:22;;;;;;;1.80;1.30;;;;;;;;;;5068319;28;24956;-57
2022/02/18 03:45:47;;;;;;;2.25;1.33;;;;;;;;;;5067946;28;24450;-56
2022/02/18 03:48:13;;;;;;;2.50;1.33;;;;;;;;;;5064536;28;24521;-57
2022/02/18 03:50:40;;;;;;;2.70;1.50;;;;;;;;;;5068647;28;24410;-56
2022/02/18 03:53:05;;;;;;;2.80;1.35;;;;;;;;;;5068223;28;24773;-56
2022/02/18 03:55:30;;;;;;;1.88;1.10;;;;;;;;;;5060354;28;25342;-56
2022/02/18 03:57:56;;;;;;;1.57;1.13;;;;;;;;;;5065545;28;24434;-57
2022/02/18 04:00:21;;;;;;;4.32;1.50;;;;;;;;;;5065974;28;24431;-56
2022/02/18 04:02:46;;;;;;;2.30;1.40;;;;;;;;;;5068449;28;24476;-56
2022/02/18 04:05:11;;;;;;;2.30;1.10;;;;;;;;;;5067909;28;24445;-56
2022/02/18 04:07:37;;;;;;;2.53;1.40;;;;;;;;;;5068268;28;24455;-56
2022/02/18 04:10:02;;;;;;;2.72;1.30;;;;;;;;;;5062193;28;24411;-57
2022/02/18 04:12:28;;;;;;;2.27;1.30;;;;;;;;;;5067531;28;24492;-57
2022/02/18 04:14:53;;;;;;;3.33;1.20;;;;;;;;;;5067766;28;24403;-57
2022/02/18 04:17:18;;;;;;;2.60;1.37;;;;;;;;;;5068054;28;24426;-56
2022/02/18 04:19:43;;;;;;;2.97;1.30;;;;;;;;;;5067406;28;25102;-56
2022/02/18 04:22:08;;;;;;;2.53;1.30;;;;;;;;;;5068368;28;24421;-57
2022/02/18 04:24:33;;;;;;;2.80;1.50;;;;;;;;;;5068401;28;24422;-57
2022/02/18 04:26:58;;;;;;;4.53;1.80;;;;;;;;;;5067397;28;24442;-56
2022/02/18 04:29:24;;;;;;;3.20;1.60;;;;;;;;;;5062450;28;24841;-57
2022/02/18 04:31:49;;;;;;;2.83;1.10;;;;;;;;;;5067328;28;24413;-56
2022/02/18 04:34:14;;;;;;;3.60;1.40;;;;;;;;;;5067707;28;24572;-56
2022/02/18 04:36:39;;;;;;;3.00;1.48;;;;;;;;;;5062554;28;24413;-55
2022/02/18 04:39:04;;;;;;;3.40;1.60;;;;;;;;;;5068412;28;24476;-54
2022/02/18 04:41:30;;;;;;;3.57;1.70;;;;;;;;;;5066574;28;24821;-56
2022/02/18 04:43:55;;;;;;;2.50;1.60;;;;;;;;;;5068528;28;24419;-55
2022/02/18 04:46:20;;;;;;;5.15;1.92;;;;;;;;;;5066314;28;24480;-55
2022/02/18 04:48:45;;;;;;;4.63;2.27;;;;;;;;;;5064196;28;24431;-56
2022/02/18 04:51:10;;;;;;;3.40;1.80;;;;;;;;;;5050690;28;24522;-56
2022/02/18 04:53:36;;;;;;;4.72;2.00;;;;;;;;;;5067902;28;24430;-55
2022/02/18 04:56:04;;;;;;;3.00;1.60;;;;;;;;;;5067388;28;24960;-56
2022/02/18 04:58:29;;;;;;;4.60;2.20;;;;;;;;;;5067458;28;24411;-56
2022/02/18 05:00:54;;;;;;;3.58;2.08;;;;;;;;;;5066234;28;24777;-55
2022/02/18 05:03:19;;;;;;;2.83;1.90;;;;;;;;;;5059454;28;24419;-56
2022/02/18 05:05:44;;;;;;;3.47;2.10;;;;;;;;;;5067404;28;24421;-55
2022/02/18 05:08:10;;;;;;;3.77;1.70;;;;;;;;;;5067270;28;24492;-55
2022/02/18 05:10:35;;;;;;;4.83;1.90;;;;;;;;;;5060388;28;24430;-56
2022/02/18 05:13:00;;;;;;;3.93;2.00;;;;;;;;;;5061536;28;24426;-56
2022/02/18 05:15:25;;;;;;;2.88;1.60;;;;;;;;;;5050519;28;24416;-56
2022/02/18 05:17:50;;;;;;;3.93;1.60;;;;;;;;;;5063218;28;24480;-56
2022/02/18 05:20:16;;;;;;;3.22;1.90;;;;;;;;;;5067017;28;24418;-56
2022/02/18 05:22:41;;;;;;;4.85;1.63;;;;;;;;;;5066317;28;24829;-56
2022/02/18 05:25:07;;;;;;;3.03;1.80;;;;;;;;;;5066845;28;24945;-56
2022/02/18 05:27:32;;;;;;;5.43;1.70;;;;;;;;;;5066563;28;24430;-56
2022/02/18 05:29:57;;;;;;;4.13;1.88;;;;;;;;;;5065834;28;24419;-56
2022/02/18 05:32:22;;;;;;;3.00;1.70;;;;;;;;;;5058034;28;24591;-57
2022/02/18 05:34:49;;;;;;;2.77;1.60;;;;;;;;;;5067377;28;24434;-56
2022/02/18 05:37:14;;;;;;;5.90;1.90;;;;;;;;;;5066321;28;24612;-57
2022/02/18 05:39:39;;;;;;;5.07;2.03;;;;;;;;;;5066817;28;24991;-57
2022/02/18 05:42:04;;;;;;;4.00;1.63;;;;;;;;;;5062859;28;24418;-56
2022/02/18 05:44:31;;;;;;;4.00;1.90;;;;;;;;;;5063544;28;24480;-57
2022/02/18 05:46:57;;;;;;;4.63;2.20;;;;;;;;;;5065906;28;24986;-57
2022/02/18 05:49:22;;;;;;;4.60;1.88;;;;;;;;;;5060516;28;24419;-58
2022/02/18 05:51:47;;;;;;;4.28;1.90;;;;;;;;;;5064988;28;24418;-54
2022/02/18 05:54:12;;;;;;;5.35;2.10;;;;;;;;;;5063209;28;24482;-55
2022/02/18 05:56:37;;;;;;;4.60;2.08;;;;;;;;;;5060375;28;24488;-57
2022/02/18 05:59:02;;;;;;;3.40;1.70;;;;;;;;;;5064134;28;24429;-56
2022/02/18 06:01:27;;;;;;;3.77;1.90;;;;;;;;;;5057010;28;24547;-57
2022/02/18 06:03:53;;;;;;;4.45;1.98;;;;;;;;;;5060771;28;24418;-57
2022/02/18 06:06:18;;;;;;;5.35;2.05;;;;;;;;;;5065218;28;24419;-57
2022/02/18 06:08:43;;;;;;;3.58;2.00;;;;;;;;;;5061379;28;24465;-57
2022/02/18 06:11:08;;;;;;;5.10;2.20;;;;;;;;;;5061050;28;24469;-57
2022/02/18 06:13:33;;;;;;;5.20;2.10;;;;;;;;;;5059202;28;24425;-58
2022/02/18 06:15:59;;;;;;;5.35;2.13;;;;;;;;;;5059064;28;24438;-59
2022/02/18 06:18:24;;;;;;;5.20;2.10;;;;;;;;;;5063318;28;24414;-58
2022/02/18 06:20:49;;;;;;;4.95;2.15;;;;;;;;;;5058602;28;25483;-58
2022/02/18 06:23:14;;;;;;;3.00;1.60;;;;;;;;;;5069634;28;24418;-58
2022/02/18 06:25:40;;;;;;;5.43;2.08;;;;;;;;;;5053448;28;24499;-56
2022/02/18 06:28:06;;;;;;;5.68;1.80;;;;;;;;;;5060491;28;25036;-57
2022/02/18 06:30:32;;;;;;;3.67;2.20;;;;;;;;;;5062490;28;24534;-57
2022/02/18 06:32:58;;;;;;;3.70;2.00;;;;;;;;;;5058468;28;24505;-57
2022/02/18 06:35:23;;;;;;;4.03;1.70;;;;;;;;;;5066454;28;24437;-57
2022/02/18 06:37:48;;;;;;;5.40;1.80;;;;;;;;;;5063508;28;24422;-57
2022/02/18 06:40:13;;;;;;;5.97;2.10;;;;;;;;;;5064558;28;24781;-57
2022/02/18 06:42:38;;;;;;;3.60;1.70;;;;;;;;;;5063064;28;24506;-57
2022/02/18 06:45:04;;;;;;;5.88;2.20;;;;;;;;;;5057647;28;24442;-57
2022/02/18 06:47:29;;;;;;;4.70;1.85;;;;;;;;;;5064966;28;24546;-57
2022/02/18 06:49:54;;;;;;;4.50;1.95;;;;;;;;;;5059969;28;24427;-57
2022/02/18 06:52:19;;;;;;;4.80;2.20;;;;;;;;;;5065159;28;25018;-56
2022/02/18 06:54:44;;;;;;;3.72;1.95;;;;;;;;;;5066206;28;24499;-57
2022/02/18 06:57:10;;;;;;;3.70;1.80;;;;;;;;;;5060882;28;24422;-57
2022/02/18 06:59:35;;;;;;;6.43;2.03;;;;;;;;;;5065783;28;25000;-55
2022/02/18 07:02:01;;;;;;;3.90;2.00;;;;;;;;;;5064000;28;24442;-56
2022/02/18 07:04:26;;;;;;;4.37;2.20;;;;;;;;;;5061075;28;24539;-56
2022/02/18 07:06:51;;;;;;;6.60;2.42;;;;;;;;;;5064735;28;24418;-56
2022/02/18 07:09:17;;;;;;;4.30;2.10;;;;;;;;;;5064095;28;24542;-56
2022/02/18 07:11:42;;;;;;;3.60;1.70;;;;;;;;;;5062734;28;25319;-56
2022/02/18 07:14:09;;;;;;;2.40;1.77;;;;;;;;;;5060121;28;24423;-56
2022/02/18 07:16:35;;;;;;;5.30;1.83;;;;;;;;;;5063716;28;24422;-57
2022/02/18 07:19:00;;;;;;;6.10;2.20;;;;;;;;;;5064227;28;24427;-57
2022/02/18 07:21:25;;;;;;;3.80;2.40;;;;;;;;;;5057603;28;24954;-57
2022/02/18 07:23:50;;;;;;;5.80;1.90;;;;;;;;;;5067359;28;24871;-57
2022/02/18 07:26:16;;;;;;;4.63;2.10;;;;;;;;;;5066382;28;24411;-57
2022/02/18 07:28:41;;;;;;;4.13;1.80;;;;;;;;;;5061127;28;24442;-57
2022/02/18 07:31:06;;;;;;;5.03;2.50;;;;;;;;;;5059034;28;24431;-57
2022/02/18 07:33:31;;;;;;;4.80;1.97;;;;;;;;;;5077438;28;24507;-57
2022/02/18 07:35:56;;;;;;;3.40;2.00;;;;;;;;;;5074811;28;24452;-56
2022/02/18 07:38:21;;;;;;;3.93;2.20;;;;;;;;;;5085934;28;24525;-56
2022/02/18 07:40:47;;;;;;;4.03;1.80;;;;;;;;;;5086931;28;24389;-56
2022/02/18 07:43:12;;;;;;;3.00;2.00;;;;;;;;;;5078476;28;24513;-56
2022/02/18 07:45:37;;;;;;;5.57;2.20;;;;;;;;;;5078372;28;25015;-56
2022/02/18 07:48:03;;;;;;;4.00;2.20;;;;;;;;;;5056805;28;24427;-56
2022/02/18 07:50:28;;;;;;;5.77;2.23;;;;;;;;;;5068113;28;24515;-56
2022/02/18 07:52:53;;;;;;;4.20;1.97;;;;;;;;;;5048959;28;24447;-57
2022/02/18 07:55:18;;;;;;;4.47;1.70;;;;;;;;;;5050306;28;24753;-56
2022/02/18 07:57:44;;;;;;;6.37;2.10;;;;;;;;;;5075478;28;24875;-56
2022/02/18 08:00:09;;;;;;;5.03;2.05;;;;;;;;;;5063658;28;24415;-56
2022/02/18 08:02:34;;;;;;;5.75;1.90;;;;;;;;;;5064214;28;24999;-57
2022/02/18 08:04:59;;;;;;;4.63;2.40;;;;;;;;;;5065811;28;24885;-56
2022/02/18 08:07:25;;;;;;;4.13;2.30;;;;;;;;;;5065319;28;24515;-56
2022/02/18 08:09:50;;;;;;;3.50;1.90;;;;;;;;;;5065229;28;24419;-56
2022/02/18 08:12:15;;;;;;;4.78;2.08;;;;;;;;;;5065465;28;24749;-56
2022/02/18 08:14:40;;;;;;;4.57;2.30;;;;;;;;;;5063620;28;24411;-56
2022/02/18 08:17:05;;;;;;;4.50;2.13;;;;;;;;;;5064723;28;24868;-57
2022/02/18 08:19:30;;;;;;;4.63;2.13;;;;;;;;;;5065124;28;24710;-57
2022/02/18 08:21:56;;;;;;;4.00;2.00;;;;;;;;;;5063506;28;25319;-57
2022/02/18 08:24:21;;;;;;;3.30;1.90;;;;;;;;;;5064931;28;24430;-57
2022/02/18 08:26:47;;;;;;;3.90;2.00;;;;;;;;;;5044127;28;24562;-57
2022/02/18 08:29:13;;;;;;;3.72;1.80;;;;;;;;;;5042616;28;25054;-57
2022/02/18 08:31:38;;;;;;;3.40;1.90;;;;;;;;;;5055506;28;24426;-57
2022/02/18 08:34:04;;;;;;;3.72;1.98;;;;;;;;;;5064372;28;24472;-57
2022/02/18 08:36:29;;;;;;;5.45;1.90;;;;;;;;;;5065070;28;24453;-57
2022/02/18 08:38:56;;;;;;;4.03;2.10;;;;;;;;;;5065548;28;24851;-57
2022/02/18 08:41:22;;;;;;;3.87;2.10;;;;;;;;;;5064831;28;24421;-57
2022/02/18 08:43:47;;;;;;;5.70;2.40;;;;;;;;;;5068466;28;24390;-57
2022/02/18 08:46:12;;;;;;;4.80;2.33;;;;;;;;;;5066791;28;24481;-57
2022/02/18 08:48:37;;;;;;;5.37;2.20;;;;;;;;;;5064908;28;24431;-58
2022/02/18 08:51:02;;;;;;;4.47;2.08;;;;;;;;;;5054579;28;24446;-57
2022/02/18 08:53:27;;;;;;;4.00;2.00;;;;;;;;;;5065787;28;24423;-57
2022/02/18 08:55:53;;;;;;;3.96;1.94;;;;;;;;;;5073972;28;24554;-58
2022/02/18 08:58:18;;;;;;;4.20;2.20;;;;;;;;;;5066746;28;24468;-57
2022/02/18 09:00:43;;;;;;;5.00;2.10;;;;;;;;;;5066670;28;24464;-58
2022/02/18 09:03:10;;;;;;;5.07;2.10;;;;;;;;;;5067058;28;24576;-58
2022/02/18 09:05:35;;;;;;;2.80;1.80;;;;;;;;;;5066476;28;24452;-58
2022/02/18 09:08:01;;;;;;;5.45;2.28;;;;;;;;;;5059890;28;24549;-58
2022/02/18 09:10:26;;;;;;;4.00;2.05;;;;;;;;;;5066130;28;24411;-58
2022/02/18 09:12:51;;;;;;;3.50;2.00;;;;;;;;;;5064134;28;24427;-58
2022/02/18 09:15:18;;;;;;;4.07;2.03;;;;;;;;;;5062977;28;24410;-58
2022/02/18 09:17:43;;;;;;;5.07;1.95;;;;;;;;;;5065974;28;24468;-57
2022/02/18 09:20:09;;;;;;;4.47;2.40;;;;;;;;;;5063114;28;24594;-57
2022/02/18 09:22:34;;;;;;;4.50;2.20;;;;;;;;;;5062735;28;24521;-58
2022/02/18 09:24:59;;;;;;;4.57;2.33;;;;;;;;;;5060959;28;24464;-59
2022/02/18 09:27:24;;;;;;;3.75;2.00;;;;;;;;;;5060528;28;24640;-56
2022/02/18 09:29:49;;;;;;;2.33;1.70;;;;;;;;;;5070563;28;24411;-58
2022/02/18 09:32:15;;;;;;;4.47;2.30;;;;;;;;;;5065489;28;24421;-56
2022/02/18 09:34:40;;;;;;;7.47;2.40;;;;;;;;;;5066189;28;24419;-57
2022/02/18 09:37:05;;;;;;;4.50;2.00;;;;;;;;;;5065608;28;24430;-56
2022/02/18 09:39:31;;;;;;;4.93;2.17;;;;;;;;;;5065981;28;24974;-57
2022/02/18 09:41:56;;;;;;;5.37;2.20;;;;;;;;;;5066716;28;24426;-58
2022/02/18 09:44:22;;;;;;;4.63;2.50;;;;;;;;;;5066001;28;24422;-57
2022/02/18 09:46:49;;;;;;;2.95;1.80;;;;;;;;;;5066342;28;24442;-57
2022/02/18 09:49:14;;;;;;;4.43;2.30;;;;;;;;;;5065810;28;24513;-57
2022/02/18 09:51:39;;;;;;;4.90;2.20;;;;;;;;;;5059980;28;24526;-57
2022/02/18 09:54:05;;;;;;;3.17;2.00;;;;;;;;;;5064696;28;24391;-57
2022/02/18 09:56:33;;;;;;;4.77;2.20;;;;;;;;;;5066328;28;24406;-57
2022/02/18 09:59:02;;;;;;;3.53;2.03;;;;;;;;;;5065752;28;24411;-57
2022/02/18 10:01:28;;;;;;;4.53;1.80;;;;;;;;;;5066565;28;24406;-57
2022/02/18 10:03:54;;;;;;;5.20;1.85;;;;;;;;;;5066115;28;24387;-57
2022/02/18 10:06:19;;;;;;;3.53;2.00;;;;;;;;;;5066007;28;24397;-57
2022/02/18 10:08:48;;;;;;;5.17;2.10;;;;;;;;;;5065376;28;24434;-57
2022/02/18 10:11:13;;;;;;;4.30;1.92;;;;;;;;;;5065622;28;24398;-57
2022/02/18 10:13:39;;;;;;;2.55;1.58;;;;;;;;;;5065885;28;24401;-57
2022/02/18 10:16:05;;;;;;;3.10;1.80;;;;;;;;;;5066299;28;24444;-57
2022/02/18 10:18:49;;;;;;;5.43;2.22;;;;;;;;;;5065444;28;24426;-57
2022/02/18 10:21:18;;;;;;;4.38;2.40;;;;;;;;;;5066076;28;24441;-57
2022/02/18 10:23:43;;;;;;;5.72;2.08;;;;;;;;;;5065714;28;24468;-58
2022/02/18 10:26:09;;;;;;;3.83;2.20;;;;;;;;;;5065819;28;24762;-57
2022/02/18 10:28:34;;;;;;;4.90;2.60;;;;;;;;;;5064900;28;24422;-57
2022/02/18 10:31:01;;;;;;;5.00;2.40;;;;;;;;;;5065895;28;24750;-57
2022/02/18 10:33:26;;;;;;;5.27;2.20;;;;;;;;;;5065493;28;24826;-56
2022/02/18 10:36:01;;;;;;;4.80;2.60;;;;;;;;;;5065439;28;24507;-57
2022/02/18 10:38:38;;;;;;;4.20;2.30;;;;;;;;;;5065585;28;24405;-56
2022/02/18 10:41:23;;;;;;;6.38;2.72;;;;;;;;;;5065598;28;24441;-57
2022/02/18 10:43:49;;;;;;;6.28;2.28;;;;;;;;;;5065979;28;25006;-57
2022/02/18 10:46:14;;;;;;;5.10;2.00;;;;;;;;;;5066086;28;24422;-57
2022/02/18 10:48:50;;;;;;;6.90;2.50;;;;;;;;;;5065790;28;24877;-57
2022/02/18 10:51:19;;;;;;;4.93;2.30;;;;;;;;;;5065902;28;24411;-56
2022/02/18 10:53:48;;;;;;;4.40;2.10;;;;;;;;;;5065972;28;24486;-57
2022/02/18 10:56:15;;;;;;;6.03;2.13;;;;;;;;;;5065800;28;24977;-57
2022/02/18 10:58:42;;;;;;;5.05;2.15;;;;;;;;;;5065856;28;24464;-57
2022/02/18 11:01:09;;;;;;;4.35;2.10;;;;;;;;;;5065283;28;24509;-57
2022/02/18 11:03:34;;;;;;;8.82;2.40;;;;;;;;;;5063902;28;24482;-57
2022/02/18 11:06:10;;;;;;;4.03;1.83;;;;;;;;;;5065433;28;24467;-57
2022/02/18 11:08:35;;;;;;;4.63;2.40;;;;;;;;;;5065978;28;24464;-56
2022/02/18 11:11:10;;;;;;;4.85;2.00;;;;;;;;;;5065327;28;24395;-57
2022/02/18 11:13:36;;;;;;;3.97;1.98;;;;;;;;;;5045561;28;24391;-57
2022/02/18 11:16:02;;;;;;;4.30;2.20;;;;;;;;;;5045742;28;24798;-57
2022/02/18 11:18:28;;;;;;;6.25;3.05;;;;;;;;;;5045345;28;24948;-57
2022/02/18 11:20:54;;;;;;;7.35;3.00;;;;;;;;;;5057980;28;24434;-57
2022/02/18 11:23:21;;;;;;;4.73;2.47;;;;;;;;;;5066960;28;24414;-57
2022/02/18 11:25:46;;;;;;;6.00;2.80;;;;;;;;;;5069523;28;24403;-57
2022/02/18 11:28:12;;;;;;;6.05;3.15;;;;;;;;;;5068219;28;24897;-57
2022/02/18 11:30:41;;;;;;;8.98;4.00;;;;;;;;;;5069543;28;24869;-57
2022/02/18 11:33:25;;;;;;;5.85;3.58;;;;;;;;;;5069064;28;24448;-57
2022/02/18 11:36:02;;;;;;;8.83;4.00;;;;;;;;;;5069553;28;24395;-57
2022/02/18 11:38:51;;;;;;;7.97;4.45;;;;;;;;;;5068370;28;24465;-58
2022/02/18 11:41:35;;;;;;;10.23;4.55;;;;;;;;;;5069307;28;24403;-58
2022/02/18 11:44:01;;;;;;;7.80;4.72;;;;;;;;;;5069307;28;24399;-58
2022/02/18 11:46:27;;;;;;;6.65;4.22;;;;;;;;;;5068845;28;24425;-57
2022/02/18 11:48:53;;;;;;;8.77;4.85;;;;;;;;;;5068310;28;24522;-58
2022/02/18 11:51:23;;;;;;;9.00;4.60;;;;;;;;;;5068696;28;24927;-57
2022/02/18 11:53:49;;;;;;;7.40;4.45;;;;;;;;;;5054653;28;24425;-57
2022/02/18 11:56:14;;;;;;;10.07;4.90;;;;;;;;;;5069633;28;24471;-57
2022/02/18 11:59:03;;;;;;;10.07;5.23;;;;;;;;;;5068085;28;25224;-57
2022/02/18 12:01:51;;;;;;;8.90;5.10;;;;;;;;;;5068926;28;24487;-57
2022/02/18 12:04:17;;;;;;;8.70;4.50;;;;;;;;;;5068727;28;24418;-57
2022/02/18 12:06:59;;;;;;;9.25;4.25;;;;;;;;;;5068364;28;24479;-58
2022/02/18 12:09:42;;;;;;;9.85;4.03;;;;;;;;;;5066925;28;24426;-58
2022/02/18 12:12:19;;;;;;;6.47;3.90;;;;;;;;;;5068224;28;24738;-58
2022/02/18 12:14:47;;;;;;;8.13;3.17;;;;;;;;;;5068565;28;24416;-58
2022/02/18 12:17:12;;;;;;;6.10;2.80;;;;;;;;;;5068072;28;24928;-57
2022/02/18 12:19:37;;;;;;;7.90;2.80;;;;;;;;;;5067933;28;24417;-58
2022/02/18 12:22:03;;;;;;;5.05;2.75;;;;;;;;;;5068162;28;24398;-58
2022/02/18 12:24:39;;;;;;;5.10;2.60;;;;;;;;;;5068561;28;25312;-58
2022/02/18 12:27:19;;;;;;;5.20;3.17;;;;;;;;;;5068291;28;24928;-63
2022/02/18 12:29:45;;;;;;;5.57;2.70;;;;;;;;;;5066854;28;24426;-58
2022/02/18 12:32:10;;;;;;;6.30;3.40;;;;;;;;;;5068016;28;24742;-57
2022/02/18 12:34:37;;;;;;;7.70;4.70;;;;;;;;;;5064141;28;24975;-58
2022/02/18 12:37:04;;;;;;;9.43;6.20;;;;;;;;;;5057400;28;24546;-58
2022/02/18 12:39:38;;;;;;;11.35;8.57;;;;;;;;;;5057232;28;24828;-58
2022/02/18 12:42:07;;;;;;;11.20;8.95;;;;;;;;;;5064046;28;24410;-58
2022/02/18 12:44:32;;;;;;;11.38;9.32;;;;;;;;;;5064471;28;24774;-57
2022/02/18 12:46:57;;;;;;;11.90;8.53;;;;;;;;;;5063828;28;24468;-57
2022/02/18 12:49:22;;;;;;;11.13;9.40;;;;;;;;;;5052986;28;24529;-57
2022/02/18 12:52:03;;;;;;;14.57;9.52;;;;;;;;;;5064143;28;24967;-57
2022/02/18 12:54:43;;;;;;;12.13;9.83;;;;;;;;;;5054669;28;24407;-57
2022/02/18 12:57:18;;;;;;;15.95;10.25;;;;;;;;;;5065050;28;24390;-58
2022/02/18 12:59:44;;;;;;;13.30;8.53;;;;;;;;;;5062926;28;25151;-56
2022/02/18 13:02:09;;;;;;;13.18;7.97;;;;;;;;;;5064566;28;24450;-57
2022/02/18 13:04:34;;;;;;;10.30;7.60;;;;;;;;;;5063919;28;24426;-57
2022/02/18 13:07:00;;;;;;;9.85;7.20;;;;;;;;;;5064451;28;25218;-58
2022/02/18 13:09:28;;;;;;;9.05;6.90;;;;;;;;;;5061773;28;24900;-58
2022/02/18 13:11:53;;;;;;;14.07;7.15;;;;;;;;;;5064088;28;24422;-57
2022/02/18 13:14:23;;;;;;;13.10;7.50;;;;;;;;;;5064548;28;24478;-57
2022/02/18 13:16:48;;;;;;;8.25;6.20;;;;;;;;;;5064343;28;24391;-55
2022/02/18 13:19:13;;;;;;;9.73;6.40;;;;;;;;;;5064850;28;25009;-57
2022/02/18 13:21:39;;;;;;;7.43;5.63;;;;;;;;;;5066002;28;24426;-57
2022/02/18 13:24:04;;;;;;;10.35;6.90;;;;;;;;;;5063283;28;24415;-58
2022/02/18 13:26:29;;;;;;;10.33;6.60;;;;;;;;;;5064562;28;24416;-57
2022/02/18 13:28:57;;;;;;;13.50;6.90;;;;;;;;;;5064101;28;24542;-56
2022/02/18 13:31:22;;;;;;;11.70;6.90;;;;;;;;;;5063901;28;24435;-56
2022/02/18 13:33:49;;;;;;;9.17;6.20;;;;;;;;;;5064057;28;24417;-57
2022/02/18 13:36:15;;;;;;;11.30;6.60;;;;;;;;;;5063287;28;24402;-57
2022/02/18 13:38:41;;;;;;;10.15;6.50;;;;;;;;;;5063601;28;24429;-56
2022/02/18 13:41:10;;;;;;;11.55;6.47;;;;;;;;;;5067203;28;24426;-56
2022/02/18 13:43:37;;;;;;;10.88;6.88;;;;;;;;;;5063457;28;24480;-56
2022/02/18 13:46:02;;;;;;;13.40;6.55;;;;;;;;;;5066283;28;24449;-57
2022/02/18 13:48:28;;;;;;;12.57;6.70;;;;;;;;;;5063570;28;24521;-57
2022/02/18 13:50:54;;;;;;;12.57;7.20;;;;;;;;;;5064355;28;24391;-57
2022/02/18 13:53:19;;;;;;;12.63;6.55;;;;;;;;;;5063936;28;24987;-56
2022/02/18 13:55:44;;;;;;;13.00;7.80;;;;;;;;;;5064372;28;24427;-56
2022/02/18 13:58:25;;;;;;;12.40;7.60;;;;;;;;;;5061168;28;24857;-56
2022/02/18 14:00:51;;;;;;;12.93;7.20;;;;;;;;;;5053542;28;24554;-57
2022/02/18 14:03:17;;;;;;;11.60;6.95;;;;;;;;;;5065433;28;24859;-56
2022/02/18 14:05:42;;;;;;;13.20;7.63;;;;;;;;;;5064029;28;24459;-56
2022/02/18 14:08:09;;;;;;;14.40;7.30;;;;;;;;;;5070668;28;24422;-56
2022/02/18 14:10:52;;;;;;;10.48;7.25;;;;;;;;;;5067506;28;24417;-56
2022/02/18 14:13:27;;;;;;;9.75;6.90;;;;;;;;;;5062214;28;24435;-56
2022/02/18 14:16:05;;;;;;;9.48;6.72;;;;;;;;;;5061965;28;24426;-56
2022/02/18 14:18:30;;;;;;;10.23;6.25;;;;;;;;;;5055087;28;24900;-57
2022/02/18 14:21:03;;;;;;;8.43;6.30;;;;;;;;;;5051599;28;24426;-56
2022/02/18 14:23:29;;;;;;;7.72;5.50;;;;;;;;;;5066656;28;24427;-55
2022/02/18 14:25:54;;;;;;;8.80;6.25;;;;;;;;;;5061295;28;26345;-57
2022/02/18 14:28:20;;;;;;;9.95;6.60;;;;;;;;;;5065946;28;24411;-57
2022/02/18 14:30:46;;;;;;;10.38;5.70;;;;;;;;;;5065297;28;24458;-56
2022/02/18 14:33:25;;;;;;;9.93;5.68;;;;;;;;;;5065539;28;25112;-56
2022/02/18 14:35:50;;;;;;;8.45;6.05;;;;;;;;;;5064786;28;24453;-56